createdAt,value
2023-02-12T00:00:11.980Z,103541.63
2023-02-12T00:02:38.874Z,103546.94
2023-02-12T00:05:06.634Z,103544.41
2023-02-12T00:07:34.809Z,103560.31
2023-02-12T00:10:01.958Z,103566.44
2023-02-12T00:12:28.973Z,103563.91
2023-02-12T00:14:55.850Z,103569.09
2023-02-12T00:17:22.736Z,103572.44
2023-02-12T00:19:49.629Z,103574.84
2023-02-12T00:22:16.552Z,103578.31
2023-02-12T00:24:44.707Z,103578.22
2023-02-12T00:27:11.626Z,103580.72
2023-02-12T00:29:38.766Z,103586.88
2023-02-12T00:32:05.856Z,103585.16
2023-02-12T00:34:32.766Z,103591.31
2023-02-12T00:36:59.609Z,103586.88
2023-02-12T00:39:26.668Z,103586.88
2023-02-12T00:41:54.876Z,103587.09
2023-02-12T00:44:21.797Z,103589.19
2023-02-12T00:46:48.745Z,103589.28
2023-02-12T00:49:15.891Z,103595.66
2023-02-12T00:51:42.767Z,103594.09
2023-02-12T00:54:09.618Z,103588.09
2023-02-12T00:56:36.687Z,103586.53
2023-02-12T00:59:04.857Z,103583.19
2023-02-12T01:01:31.727Z,103593.91
2023-02-12T01:03:58.616Z,103587.91
2023-02-12T01:06:25.895Z,103594.16
2023-02-12T01:08:53.380Z,103590.78
2023-02-12T01:11:21.009Z,103592.72
2023-02-12T01:13:47.906Z,103592.72
2023-02-12T01:16:20.594Z,103592.72
2023-02-12T01:18:48.746Z,103593.56
2023-02-12T01:21:19.187Z,103601.38
2023-02-12T01:23:47.763Z,103601.38
2023-02-12T01:26:16.548Z,103603.06
2023-02-12T01:28:48.715Z,103600.28
2023-02-12T01:31:20.537Z,103593.31
2023-02-12T01:33:49.690Z,103591.50
2023-02-12T01:36:16.650Z,103599.44
2023-02-12T01:38:43.831Z,103594.16
2023-02-12T01:41:14.849Z,103601.94
2023-02-12T01:43:42.559Z,103603.66
2023-02-12T01:46:14.629Z,103605.22
2023-02-12T01:48:48.025Z,103602.56
2023-02-12T01:51:20.386Z,103603.50
2023-02-12T01:53:52.335Z,103597.50
2023-02-12T01:56:19.945Z,103609.06
2023-02-12T01:58:51.138Z,103597.78
2023-02-12T02:01:22.587Z,103592.72
2023-02-12T02:03:57.072Z,103596.31
2023-02-12T02:06:31.240Z,103587.91
2023-02-12T02:08:58.253Z,103587.91
2023-02-12T02:11:43.548Z,103602.13
2023-02-12T02:14:28.979Z,103591.06
2023-02-12T02:17:24.345Z,103591.66
2023-02-12T02:20:21.421Z,103587.47
2023-02-12T02:23:04.035Z,103582.16
2023-02-12T02:25:57.204Z,103584.09
2023-02-12T02:28:56.834Z,103583.38
2023-02-12T02:31:33.274Z,103581.81
2023-02-12T02:34:12.235Z,103582.19
2023-02-12T02:36:59.555Z,103578.09
2023-02-12T02:39:38.631Z,103581.72
2023-02-12T02:42:15.555Z,103577.38
2023-02-12T02:44:51.044Z,103574.72
2023-02-12T02:47:25.166Z,103581.94
2023-02-12T02:49:57.528Z,103582.94
2023-02-12T02:52:33.879Z,103585.56
2023-02-12T02:55:07.195Z,103584.72
2023-02-12T02:57:41.344Z,103578.59
2023-02-12T03:00:18.286Z,103585.56
2023-02-12T03:02:55.146Z,103589.03
2023-02-12T03:05:28.698Z,103583.63
2023-02-12T03:08:02.907Z,103589.78
2023-02-12T03:10:36.494Z,103585.31
2023-02-12T03:13:11.787Z,103588.94
2023-02-12T03:15:46.911Z,103590.84
2023-02-12T03:18:22.758Z,103587.47
2023-02-12T03:20:58.509Z,103588.44
2023-02-12T03:23:32.562Z,103590.25
2023-02-12T03:26:06.221Z,103593.72
2023-02-12T03:28:38.311Z,103594.44
2023-02-12T03:31:16.845Z,103592.66
2023-02-12T03:34:00.127Z,103600.69
2023-02-12T03:36:43.119Z,103601.91
2023-02-12T03:39:20.406Z,103607.19
2023-02-12T03:41:56.628Z,103604.53
2023-02-12T03:44:41.761Z,103600.25
2023-02-12T03:47:21.035Z,103606.34
2023-02-12T03:49:59.376Z,103608.03
2023-02-12T03:52:26.986Z,103606.97
2023-02-12T03:54:54.026Z,103613.09
2023-02-12T03:57:30.424Z,103610.56
2023-02-12T03:59:59.006Z,103617.53
2023-02-12T04:02:26.100Z,103620.91
2023-02-12T04:04:54.456Z,103621.50
2023-02-12T04:07:21.948Z,103623.31
2023-02-12T04:09:49.130Z,103624.25
2023-02-12T04:12:34.728Z,103625.59
2023-02-12T04:15:20.935Z,103626.41
2023-02-12T04:17:58.260Z,103620.03
2023-02-12T04:20:37.743Z,103620.66
2023-02-12T04:23:21.105Z,103621.50
2023-02-12T04:26:02.808Z,103624.03
2023-02-12T04:28:44.161Z,103624.03
2023-02-12T04:31:23.598Z,103629.31
2023-02-12T04:34:07.188Z,103625.81
2023-02-12T04:36:47.142Z,103629.31
2023-02-12T04:39:22.040Z,103624.88
2023-02-12T04:41:49.462Z,103632.69
2023-02-12T04:44:22.375Z,103621.25
2023-02-12T04:46:49.415Z,103627.16
2023-02-12T04:49:19.755Z,103630.53
2023-02-12T04:51:49.372Z,103628.59
2023-02-12T04:54:18.953Z,103631.22
2023-02-12T04:56:46.358Z,103627.63
2023-02-12T04:59:13.995Z,103620.41
2023-02-12T05:01:44.208Z,103622.84
2023-02-12T05:04:14.491Z,103620.06
2023-02-12T05:06:43.132Z,103622.56
2023-02-12T05:09:16.601Z,103617.28
2023-02-12T05:11:43.839Z,103615.59
2023-02-12T05:14:11.380Z,103620.91
2023-02-12T05:16:38.404Z,103621.84
2023-02-12T05:19:05.622Z,103619.22
2023-02-12T05:21:32.560Z,103622.94
2023-02-12T05:24:01.438Z,103617.78
2023-02-12T05:26:29.902Z,103617.63
2023-02-12T05:28:56.799Z,103618.50
2023-02-12T05:31:23.883Z,103619.34
2023-02-12T05:33:51.042Z,103621.13
2023-02-12T05:36:21.188Z,103628.13
2023-02-12T05:38:51.719Z,103626.44
2023-02-12T05:41:21.870Z,103623.06
2023-02-12T05:43:50.925Z,103621.38
2023-02-12T05:46:20.364Z,103626.78
2023-02-12T05:48:47.893Z,103631.47
2023-02-12T05:51:17.696Z,103634.38
2023-02-12T05:53:44.566Z,103634.59
2023-02-12T05:56:14.988Z,103634.84
2023-02-12T05:58:45.196Z,103639.41
2023-02-12T06:01:17.039Z,103640.34
2023-02-12T06:03:44.749Z,103647.56
2023-02-12T06:06:12.626Z,103645.91
2023-02-12T06:08:39.843Z,103652.03
2023-02-12T06:11:10.985Z,103657.19
2023-02-12T06:13:38.125Z,103656.97
2023-02-12T06:16:06.219Z,103654.19
2023-02-12T06:18:36.846Z,103656.00
2023-02-12T06:21:04.281Z,103659.50
2023-02-12T06:23:31.223Z,103649.97
2023-02-12T06:25:58.603Z,103650.84
2023-02-12T06:28:25.827Z,103650.94
2023-02-12T06:30:52.993Z,103666.81
2023-02-12T06:33:20.037Z,103654.56
2023-02-12T06:35:48.345Z,103661.50
2023-02-12T06:38:15.388Z,103668.50
2023-02-12T06:40:42.353Z,103673.78
2023-02-12T06:43:09.521Z,103671.16
2023-02-12T06:45:36.675Z,103679.78
2023-02-12T06:48:03.969Z,103679.06
2023-02-12T06:50:31.246Z,103680.03
2023-02-12T06:52:59.931Z,103677.50
2023-02-12T06:55:26.946Z,103681.22
2023-02-12T06:57:53.899Z,103682.22
2023-02-12T07:00:22.444Z,103686.53
2023-02-12T07:02:54.366Z,103692.66
2023-02-12T07:05:23.156Z,103694.22
2023-02-12T07:07:50.287Z,103698.31
2023-02-12T07:10:19.783Z,103697.94
2023-02-12T07:12:46.838Z,103696.88
2023-02-12T07:15:14.664Z,103702.78
2023-02-12T07:17:41.872Z,103702.66
2023-02-12T07:20:10.063Z,103699.06
2023-02-12T07:22:37.284Z,103708.66
2023-02-12T07:25:04.930Z,103711.31
2023-02-12T07:27:37.262Z,103714.94
2023-02-12T07:30:05.702Z,103711.31
2023-02-12T07:32:33.088Z,103722.16
2023-02-12T07:35:00.194Z,103711.78
2023-02-12T07:37:27.218Z,103719.00
2023-02-12T07:39:54.122Z,103726.09
2023-02-12T07:42:21.166Z,103728.63
2023-02-12T07:44:49.987Z,103724.31
2023-02-12T07:47:17.553Z,103727.66
2023-02-12T07:49:44.555Z,103726.69
2023-02-12T07:52:13.494Z,103732.72
2023-02-12T07:54:40.435Z,103729.94
2023-02-12T07:57:07.356Z,103736.91
2023-02-12T07:59:35.583Z,103737.75
2023-02-12T08:02:03.889Z,103740.41
2023-02-12T08:04:30.867Z,103738.84
2023-02-12T08:06:57.860Z,103737.16
2023-02-12T08:09:30.707Z,103734.41
2023-02-12T08:11:57.859Z,103736.91
2023-02-12T08:14:26.675Z,103741.13
2023-02-12T08:16:53.655Z,103747.88
2023-02-12T08:19:26.131Z,103743.81
2023-02-12T08:21:55.833Z,103755.81
2023-02-12T08:24:23.336Z,103752.09
2023-02-12T08:26:50.638Z,103756.19
2023-02-12T08:29:21.582Z,103756.19
2023-02-12T08:31:54.969Z,103766.78
2023-02-12T08:34:26.231Z,103767.63
2023-02-12T08:36:54.870Z,103767.38
2023-02-12T08:39:24.365Z,103760.88
2023-02-12T08:41:53.677Z,103773.75
2023-02-12T08:44:20.837Z,103772.81
2023-02-12T08:46:50.496Z,103762.09
2023-02-12T08:49:20.926Z,103763.66
2023-02-12T08:51:52.270Z,103763.78
2023-02-12T08:54:22.464Z,103770.88
2023-02-12T08:56:49.968Z,103768.09
2023-02-12T08:59:17.949Z,103777.75
2023-02-12T09:01:45.361Z,103769.66
2023-02-12T09:04:17.844Z,103776.75
2023-02-12T09:06:46.163Z,103783.75
2023-02-12T09:09:15.205Z,103778.47
2023-02-12T09:11:43.086Z,103777.50
2023-02-12T09:14:14.081Z,103785.31
2023-02-12T09:16:41.552Z,103792.06
2023-02-12T09:19:12.208Z,103789.41
2023-02-12T09:21:39.203Z,103784.72
2023-02-12T09:24:06.668Z,103789.78
2023-02-12T09:26:34.976Z,103789.53
2023-02-12T09:29:03.965Z,103793.75
2023-02-12T09:31:33.277Z,103798.81
2023-02-12T09:34:03.766Z,103802.78
2023-02-12T09:36:32.555Z,103794.56
2023-02-12T09:39:00.406Z,103797.84
2023-02-12T09:41:49.773Z,103801.31
2023-02-12T09:44:26.590Z,103802.75
2023-02-12T09:47:01.252Z,103802.41
2023-02-12T09:49:49.937Z,103812.03
2023-02-12T09:52:23.188Z,103812.38
2023-02-12T09:54:51.291Z,103819.00
2023-02-12T09:57:29.224Z,103817.19
2023-02-12T10:00:01.863Z,103814.09
2023-02-12T10:02:30.047Z,103814.44
2023-02-12T10:05:01.979Z,103813.09
2023-02-12T10:07:57.463Z,103813.91
2023-02-12T10:10:47.107Z,103818.41
2023-02-12T10:13:31.465Z,103826.34
2023-02-12T10:16:10.130Z,103824.28
2023-02-12T10:19:00.827Z,103831.84
2023-02-12T10:21:44.696Z,103822.72
2023-02-12T10:24:57.206Z,103821.00
2023-02-12T10:27:38.363Z,103818.84
2023-02-12T10:30:19.975Z,103815.47
2023-02-12T10:32:52.712Z,103824.59
2023-02-12T10:35:23.550Z,103814.72
2023-02-12T10:37:59.288Z,103817.22
2023-02-12T10:40:32.846Z,103818.69
2023-02-12T10:43:02.685Z,103814.41
2023-02-12T10:45:34.053Z,103818.25
2023-02-12T10:48:13.336Z,103808.72
2023-02-12T10:51:00.644Z,103815.13
2023-02-12T10:53:35.030Z,103810.91
2023-02-12T10:56:18.236Z,103819.25
2023-02-12T10:58:55.592Z,103818.53
2023-02-12T11:01:27.515Z,103812.28
2023-02-12T11:03:56.343Z,103815.38
2023-02-12T11:06:29.333Z,103814.88
2023-02-12T11:08:59.274Z,103816.06
2023-02-12T11:11:30.620Z,103812.88
2023-02-12T11:14:03.171Z,103808.03
2023-02-12T11:16:35.148Z,103814.19
2023-02-12T11:19:06.179Z,103812.50
2023-02-12T11:21:34.565Z,103808.03
2023-02-12T11:24:28.707Z,103803.97
2023-02-12T11:27:13.306Z,103801.00
2023-02-12T11:29:41.033Z,103795.69
2023-02-12T11:32:17.102Z,103803.75
2023-02-12T11:34:44.078Z,103801.81
2023-02-12T11:37:18.684Z,103792.88
2023-02-12T11:39:50.317Z,103794.59
2023-02-12T11:42:22.351Z,103798.19
2023-02-12T11:44:54.604Z,103785.88
2023-02-12T11:47:27.065Z,103785.41
2023-02-12T11:49:58.578Z,103786.56
2023-02-12T11:52:31.082Z,103781.25
2023-02-12T11:55:04.700Z,103777.66
2023-02-12T11:57:43.487Z,103784.38
2023-02-12T12:00:17.997Z,103776.59
2023-02-12T12:02:55.151Z,103779.69
2023-02-12T12:05:29.584Z,103773.97
2023-02-12T12:08:02.974Z,103772.88
2023-02-12T12:10:40.792Z,103773.63
2023-02-12T12:13:17.183Z,103773.72
2023-02-12T12:16:09.163Z,103767.84
2023-02-12T12:19:05.728Z,103769.16
2023-02-12T12:21:42.367Z,103761.50
2023-02-12T12:24:17.246Z,103759.38
2023-02-12T12:27:00.664Z,103758.69
2023-02-12T12:29:47.437Z,103762.00
2023-02-12T12:32:20.473Z,103760.44
2023-02-12T12:34:48.889Z,103761.69
2023-02-12T12:37:40.320Z,103755.25
2023-02-12T12:40:34.980Z,103763.72
2023-02-12T12:43:14.390Z,103762.28
2023-02-12T12:46:20.757Z,103753.75
2023-02-12T12:49:39.198Z,103750.56
2023-02-12T12:52:57.549Z,103745.69
2023-02-12T12:56:10.688Z,103739.69
2023-02-12T12:58:57.666Z,103745.84
2023-02-12T13:02:05.091Z,103739.78
2023-02-12T13:04:57.007Z,103732.72
2023-02-12T13:07:50.569Z,103732.25
2023-02-12T13:10:33.962Z,103723.72
2023-02-12T13:13:23.301Z,103722.19
2023-02-12T13:16:01.045Z,103723.72
2023-02-12T13:18:48.417Z,103726.38
2023-02-12T13:21:34.893Z,103722.34
2023-02-12T13:24:15.333Z,103731.47
2023-02-12T13:26:49.276Z,103720.75
2023-02-12T13:29:22.695Z,103728.06
2023-02-12T13:31:57.738Z,103724.66
2023-02-12T13:34:30.525Z,103733.88
2023-02-12T13:37:01.038Z,103730.50
2023-02-12T13:39:34.512Z,103730.50
2023-02-12T13:42:23.657Z,103727.16
2023-02-12T13:45:01.425Z,103726.44
2023-02-12T13:47:44.514Z,103726.84
2023-02-12T13:50:36.493Z,103723.72
2023-02-12T13:53:17.707Z,103724.59
2023-02-12T13:56:04.205Z,103724.59
2023-02-12T13:59:00.114Z,103724.59
2023-02-12T14:01:46.516Z,103729.03
2023-02-12T14:04:29.904Z,103727.47
2023-02-12T14:07:04.423Z,103729.44
2023-02-12T14:09:38.080Z,103733.28
2023-02-12T14:12:11.429Z,103732.72
2023-02-12T14:14:44.446Z,103734.69
2023-02-12T14:17:52.941Z,103728.06
2023-02-12T14:20:27.243Z,103730.31
2023-02-12T14:23:28.016Z,103722.81
2023-02-12T14:26:05.542Z,103730.06
2023-02-12T14:28:50.109Z,103723.66
2023-02-12T14:31:34.611Z,103724.84
2023-02-12T14:34:40.792Z,103722.19
2023-02-12T14:37:17.944Z,103727.94
2023-02-12T14:39:45.527Z,103724.28
2023-02-12T14:42:44.123Z,103732.53
2023-02-12T14:45:37.080Z,103729.88
2023-02-12T14:48:05.236Z,103737.47
2023-02-12T14:50:43.064Z,103733.25
2023-02-12T14:53:30.499Z,103734.84
2023-02-12T14:55:59.890Z,103740.03
2023-02-12T14:58:28.005Z,103735.84
2023-02-12T15:00:59.834Z,103740.44
2023-02-12T15:03:39.881Z,103738.75
2023-02-12T15:06:16.148Z,103733.56
2023-02-12T15:08:54.760Z,103727.53
2023-02-12T15:11:43.218Z,103728.66
2023-02-12T15:14:21.031Z,103729.38
2023-02-12T15:16:59.907Z,103736.47
2023-02-12T15:19:40.558Z,103740.09
2023-02-12T15:22:22.810Z,103737.56
2023-02-12T15:24:49.904Z,103737.56
2023-02-12T15:27:20.424Z,103739.28
2023-02-12T15:29:52.651Z,103742.88
2023-02-12T15:32:27.176Z,103736.72
2023-02-12T15:34:55.974Z,103735.06
2023-02-12T15:37:28.112Z,103734.47
2023-02-12T15:40:00.233Z,103734.72
2023-02-12T15:42:31.220Z,103734.84
2023-02-12T15:45:16.177Z,103740.41
2023-02-12T15:47:54.620Z,103739.69
2023-02-12T15:50:22.539Z,103733.56
2023-02-12T15:52:50.824Z,103734.41
2023-02-12T15:55:22.593Z,103735.50
2023-02-12T15:57:51.280Z,103732.28
2023-02-12T16:00:31.967Z,103739.88
2023-02-12T16:03:00.223Z,103737.34
2023-02-12T16:05:27.941Z,103741.94
2023-02-12T16:07:55.783Z,103735.66
2023-02-12T16:10:24.076Z,103739.16
2023-02-12T16:12:51.931Z,103741.72
2023-02-12T16:15:30.689Z,103742.66
2023-02-12T16:18:03.873Z,103732.06
2023-02-12T16:20:32.094Z,103739.06
2023-02-12T16:22:59.974Z,103733.47
2023-02-12T16:25:30.460Z,103737.56
2023-02-12T16:28:03.082Z,103744.53
2023-02-12T16:30:33.317Z,103743.59
2023-02-12T16:33:02.284Z,103746.94
2023-02-12T16:35:32.469Z,103754.06
2023-02-12T16:38:23.403Z,103752.50
2023-02-12T16:41:21.515Z,103753.97
2023-02-12T16:43:51.151Z,103748.28
2023-02-12T16:46:19.410Z,103753.88
2023-02-12T16:48:51.610Z,103749.66
2023-02-12T16:51:25.081Z,103756.88
2023-02-12T16:53:53.979Z,103756.88
2023-02-12T16:56:24.837Z,103758.72
2023-02-12T16:58:56.216Z,103755.22
2023-02-12T17:01:27.728Z,103753.50
2023-02-12T17:04:00.088Z,103764.00
2023-02-12T17:06:31.310Z,103760.50
2023-02-12T17:08:59.124Z,103761.22
2023-02-12T17:11:29.149Z,103770.03
2023-02-12T17:13:56.846Z,103754.13
2023-02-12T17:16:32.362Z,103762.91
2023-02-12T17:19:00.660Z,103767.13
2023-02-12T17:21:31.277Z,103764.47
2023-02-12T17:23:58.372Z,103760.97
2023-02-12T17:26:26.917Z,103765.56
2023-02-12T17:28:54.107Z,103769.16
2023-02-12T17:31:21.182Z,103772.78
2023-02-12T17:33:48.360Z,103774.72
2023-02-12T17:36:15.357Z,103776.66
2023-02-12T17:38:42.298Z,103778.59
2023-02-12T17:41:10.642Z,103780.28
2023-02-12T17:43:38.936Z,103783.75
2023-02-12T17:46:09.829Z,103779.44
2023-02-12T17:48:37.166Z,103780.16
2023-02-12T17:51:04.672Z,103783.38
2023-02-12T17:53:31.837Z,103784.22
2023-02-12T17:55:58.919Z,103790.38
2023-02-12T17:58:25.935Z,103793.97
2023-02-12T18:00:55.300Z,103789.81
2023-02-12T18:03:22.875Z,103788.97
2023-02-12T18:05:49.704Z,103788.09
2023-02-12T18:08:16.609Z,103784.63
2023-02-12T18:10:45.194Z,103787.25
2023-02-12T18:13:13.778Z,103782.81
2023-02-12T18:15:41.594Z,103787.25
2023-02-12T18:18:10.362Z,103789.06
2023-02-12T18:20:39.824Z,103787.25
2023-02-12T18:23:08.378Z,103787.25
2023-02-12T18:25:39.240Z,103792.69
2023-02-12T18:28:06.326Z,103794.50
2023-02-12T18:30:33.442Z,103787.41
2023-02-12T18:33:00.558Z,103789.19
2023-02-12T18:35:29.116Z,103786.56
2023-02-12T18:37:57.872Z,103783.06
2023-02-12T18:40:25.657Z,103792.81
2023-02-12T18:42:52.651Z,103787.50
2023-02-12T18:45:21.541Z,103785.69
2023-02-12T18:47:48.423Z,103785.84
2023-02-12T18:50:15.448Z,103794.75
2023-02-12T18:52:43.722Z,103787.78
2023-02-12T18:55:10.667Z,103785.38
2023-02-12T18:57:37.556Z,103790.66
2023-02-12T19:00:06.025Z,103794.28
2023-02-12T19:02:33.028Z,103792.47
2023-02-12T19:05:00.132Z,103790.66
2023-02-12T19:07:27.334Z,103795.00
2023-02-12T19:09:55.735Z,103796.69
2023-02-12T19:12:23.115Z,103796.69
2023-02-12T19:14:50.027Z,103793.19
2023-02-12T19:17:17.098Z,103789.97
2023-02-12T19:19:44.149Z,103805.16
2023-02-12T19:22:11.107Z,103799.13
2023-02-12T19:24:46.623Z,103799.38
2023-02-12T19:27:15.465Z,103802.25
2023-02-12T19:29:42.653Z,103800.56
2023-02-12T19:32:09.841Z,103805.16
2023-02-12T19:34:36.752Z,103803.72
2023-02-12T19:37:03.614Z,103811.06
2023-02-12T19:39:30.641Z,103810.44
2023-02-12T19:41:57.477Z,103811.53
2023-02-12T19:44:25.867Z,103811.66
2023-02-12T19:46:53.173Z,103801.31
2023-02-12T19:49:23.418Z,103803.25
2023-02-12T19:51:50.654Z,103798.19
2023-02-12T19:54:20.103Z,103799.03
2023-02-12T19:56:47.537Z,103800.81
2023-02-12T19:59:17.524Z,103798.31
2023-02-12T20:01:48.040Z,103798.41
2023-02-12T20:04:20.006Z,103805.41
2023-02-12T20:06:50.696Z,103806.34
2023-02-12T20:09:18.203Z,103801.31
2023-02-12T20:11:45.367Z,103797.13
2023-02-12T20:14:14.043Z,103804.22
2023-02-12T20:16:44.502Z,103807.00
2023-02-12T20:19:16.973Z,103799.16
2023-02-12T20:21:44.186Z,103802.50
2023-02-12T20:24:11.186Z,103814.56
2023-02-12T20:26:38.854Z,103807.34
2023-02-12T20:29:06.429Z,103819.38
2023-02-12T20:31:37.014Z,103809.63
2023-02-12T20:34:07.878Z,103807.69
2023-02-12T20:36:38.839Z,103811.91
2023-02-12T20:39:10.453Z,103808.53
2023-02-12T20:41:37.881Z,103805.03
2023-02-12T20:44:07.072Z,103801.53
2023-02-12T20:46:36.108Z,103800.69
2023-02-12T20:49:03.601Z,103799.03
2023-02-12T20:51:31.123Z,103802.41
2023-02-12T20:54:01.711Z,103807.56
2023-02-12T20:56:31.936Z,103804.09
2023-02-12T20:58:59.983Z,103796.25
2023-02-12T21:01:34.551Z,103800.69
2023-02-12T21:04:04.267Z,103800.69
2023-02-12T21:06:31.662Z,103799.88
2023-02-12T21:08:59.991Z,103798.91
2023-02-12T21:11:29.110Z,103796.25
2023-02-12T21:14:02.745Z,103800.59
2023-02-12T21:16:41.530Z,103801.53
2023-02-12T21:19:09.448Z,103796.25
2023-02-12T21:21:39.343Z,103794.59
2023-02-12T21:24:12.571Z,103798.19
2023-02-12T21:26:39.895Z,103801.81
2023-02-12T21:29:06.860Z,103800.97
2023-02-12T21:31:36.781Z,103800.13
2023-02-12T21:34:06.928Z,103798.41
2023-02-12T21:36:37.312Z,103796.75
2023-02-12T21:39:09.905Z,103796.75
2023-02-12T21:41:40.283Z,103793.47
2023-02-12T21:44:12.128Z,103794.56
2023-02-12T21:46:40.147Z,103790.50
2023-02-12T21:49:07.949Z,103783.75
2023-02-12T21:51:37.828Z,103789.28
2023-02-12T21:54:09.565Z,103785.22
2023-02-12T21:56:37.940Z,103788.94
2023-02-12T21:59:06.033Z,103782.06
2023-02-12T22:01:41.021Z,103780.50
2023-02-12T22:04:08.611Z,103791.19
2023-02-12T22:06:38.477Z,103779.91
2023-02-12T22:09:09.424Z,103774.59
2023-02-12T22:11:38.370Z,103777.38
2023-02-12T22:14:08.014Z,103778.22
2023-02-12T22:16:36.506Z,103777.50
2023-02-12T22:19:04.994Z,103775.81
2023-02-12T22:21:36.520Z,103782.06
2023-02-12T22:24:06.993Z,103788.31
2023-02-12T22:26:36.001Z,103790.97
2023-02-12T22:29:06.542Z,103784.84
2023-02-12T22:31:37.068Z,103788.19
2023-02-12T22:34:07.208Z,103789.06
2023-02-12T22:36:36.207Z,103784.69
2023-02-12T22:39:04.855Z,103783.16
2023-02-12T22:41:32.642Z,103784.13
2023-02-12T22:44:02.506Z,103788.69
2023-02-12T22:46:29.427Z,103793.38
2023-02-12T22:48:56.511Z,103794.34
2023-02-12T22:51:25.963Z,103798.78
2023-02-12T22:53:54.195Z,103803.22
2023-02-12T22:56:22.733Z,103797.22
2023-02-12T22:58:56.001Z,103802.75
2023-02-12T23:01:25.630Z,103802.16
2023-02-12T23:03:53.273Z,103791.66
2023-02-12T23:06:22.963Z,103799.00
2023-02-12T23:08:52.310Z,103799.09
2023-02-12T23:11:20.358Z,103793.94
2023-02-12T23:13:47.633Z,103801.88
2023-02-12T23:16:14.658Z,103802.88
2023-02-12T23:18:43.381Z,103802.88
2023-02-12T23:21:10.291Z,103798.66
2023-02-12T23:23:37.383Z,103793.34
2023-02-12T23:26:05.007Z,103798.53
2023-02-12T23:28:32.346Z,103799.38
2023-02-12T23:30:59.668Z,103790.44
2023-02-12T23:33:26.871Z,103787.81
2023-02-12T23:35:55.091Z,103790.34
2023-02-12T23:38:22.126Z,103792.03
2023-02-12T23:40:49.068Z,103796.47
2023-02-12T23:43:16.032Z,103796.47
2023-02-12T23:45:44.366Z,103794.81
2023-02-12T23:48:12.073Z,103796.38
2023-02-12T23:50:39.335Z,103792.75
2023-02-12T23:53:09.998Z,103784.69
2023-02-12T23:55:38.178Z,103780.13
2023-02-12T23:58:06.728Z,103784.47
